createdAt,value
2018-06-21T00:02:13.021Z,7.70
2018-06-21T00:04:44.716Z,6.90
2018-06-21T00:07:15.687Z,5.63
2018-06-21T00:09:46.036Z,7.37
2018-06-21T00:12:16.670Z,6.50
2018-06-21T00:14:47.154Z,6.10
2018-06-21T00:17:18.565Z,5.67
2018-06-21T00:19:50.069Z,5.70
2018-06-21T00:22:20.959Z,6.53
2018-06-21T00:24:51.756Z,6.33
2018-06-21T00:27:22.324Z,8.20
2018-06-21T00:29:52.771Z,6.63
2018-06-21T00:32:23.736Z,6.97
2018-06-21T00:34:54.360Z,6.20
2018-06-21T00:37:25.300Z,5.27
2018-06-21T00:39:55.780Z,5.93
2018-06-21T00:42:27.912Z,6.00
2018-06-21T00:44:58.438Z,6.40
2018-06-21T00:47:29.014Z,6.57
2018-06-21T00:50:01.036Z,5.80
2018-06-21T00:52:32.376Z,6.73
2018-06-21T00:55:03.241Z,6.20
2018-06-21T00:57:33.945Z,6.53
2018-06-21T01:00:06.188Z,5.83
2018-06-21T01:02:36.775Z,7.93
2018-06-21T01:05:08.024Z,5.90
2018-06-21T01:07:38.942Z,6.60
2018-06-21T01:10:09.636Z,6.10
2018-06-21T01:12:41.440Z,6.50
2018-06-21T01:15:12.256Z,7.47
2018-06-21T01:17:42.822Z,8.03
2018-06-21T01:20:13.861Z,12.67
2018-06-21T01:22:44.750Z,8.03
2018-06-21T01:25:15.490Z,6.70
2018-06-21T01:27:47.505Z,6.03
2018-06-21T01:30:18.817Z,6.67
2018-06-21T01:32:49.254Z,7.57
2018-06-21T01:35:19.971Z,6.50
2018-06-21T01:37:50.687Z,6.77
2018-06-21T01:40:21.965Z,7.87
2018-06-21T01:42:52.973Z,6.17
2018-06-21T01:45:24.039Z,7.83
2018-06-21T01:47:54.472Z,8.33
2018-06-21T01:50:26.087Z,7.87
2018-06-21T01:52:58.276Z,11.13
2018-06-21T01:55:28.654Z,7.80
2018-06-21T01:57:59.517Z,8.13
2018-06-21T02:00:30.319Z,7.53
2018-06-21T02:03:01.734Z,9.23
2018-06-21T02:05:32.482Z,7.80
2018-06-21T02:08:03.757Z,7.77
2018-06-21T02:10:35.246Z,9.40
2018-06-21T02:13:07.307Z,9.40
2018-06-21T02:15:37.940Z,7.00
2018-06-21T02:18:09.078Z,7.73
2018-06-21T02:20:40.117Z,7.37
2018-06-21T02:23:10.987Z,7.00
2018-06-21T02:25:41.414Z,6.67
2018-06-21T02:28:12.220Z,6.30
2018-06-21T02:30:43.256Z,6.73
2018-06-21T02:33:13.752Z,7.83
2018-06-21T02:35:44.979Z,7.33
2018-06-21T02:38:15.456Z,9.50
2018-06-21T02:40:47.220Z,9.53
2018-06-21T02:43:18.150Z,7.67
2018-06-21T02:45:48.928Z,7.20
2018-06-21T02:48:19.644Z,9.40
2018-06-21T02:50:50.453Z,6.93
2018-06-21T02:53:21.896Z,6.70
2018-06-21T02:55:52.837Z,11.50
2018-06-21T02:58:24.415Z,9.67
2018-06-21T03:00:54.921Z,11.03
2018-06-21T03:03:25.922Z,9.37
2018-06-21T03:05:56.808Z,8.13
2018-06-21T03:08:27.283Z,9.50
2018-06-21T03:11:01.788Z,9.27
2018-06-21T03:13:32.305Z,7.47
2018-06-21T03:16:04.330Z,9.57
2018-06-21T03:18:35.289Z,6.93
2018-06-21T03:21:05.675Z,9.80
2018-06-21T03:23:36.687Z,8.67
2018-06-21T03:26:07.798Z,8.77
2018-06-21T03:28:38.755Z,9.47
2018-06-21T03:31:09.473Z,7.27
2018-06-21T03:33:41.468Z,6.97
2018-06-21T03:36:12.481Z,9.37
2018-06-21T03:38:44.650Z,8.40
2018-06-21T03:41:15.378Z,11.90
2018-06-21T03:43:47.376Z,11.80
2018-06-21T03:46:18.517Z,15.83
2018-06-21T03:48:49.246Z,16.67
2018-06-21T03:51:19.918Z,13.63
2018-06-21T03:53:51.211Z,8.37
2018-06-21T03:56:22.451Z,16.53
2018-06-21T03:58:53.312Z,12.50
2018-06-21T04:01:24.664Z,11.60
2018-06-21T04:03:55.742Z,15.73
2018-06-21T04:06:27.131Z,10.03
2018-06-21T04:08:58.243Z,14.80
2018-06-21T04:11:28.941Z,17.23
2018-06-21T04:13:59.480Z,15.97
2018-06-21T04:16:30.152Z,15.33
2018-06-21T04:19:01.933Z,17.37
2018-06-21T04:21:32.691Z,13.07
2018-06-21T04:24:03.889Z,11.63
2018-06-21T04:26:34.764Z,16.63
2018-06-21T04:29:06.656Z,12.37
2018-06-21T04:31:37.585Z,18.87
2018-06-21T04:34:08.358Z,20.73
2018-06-21T04:36:40.022Z,21.93
2018-06-21T04:39:11.338Z,14.30
2018-06-21T04:41:42.602Z,15.00
2018-06-21T04:44:14.238Z,32.27
2018-06-21T04:46:45.335Z,16.23
2018-06-21T04:49:18.612Z,17.30
2018-06-21T04:51:50.512Z,16.23
2018-06-21T04:54:21.625Z,14.57
2018-06-21T04:56:52.856Z,19.33
2018-06-21T04:59:23.616Z,14.63
2018-06-21T05:01:54.909Z,22.40
2018-06-21T05:04:25.457Z,16.17
2018-06-21T05:06:56.516Z,20.77
2018-06-21T05:09:27.004Z,22.90
2018-06-21T05:11:57.793Z,15.60
2018-06-21T05:14:29.671Z,17.30
2018-06-21T05:17:01.074Z,21.83
2018-06-21T05:19:32.351Z,13.97
2018-06-21T05:22:03.604Z,16.60
2018-06-21T05:24:34.735Z,14.70
2018-06-21T05:27:05.152Z,14.57
2018-06-21T05:29:36.153Z,12.23
2018-06-21T05:32:07.417Z,12.93
2018-06-21T05:34:38.465Z,14.03
2018-06-21T05:37:09.525Z,19.40
2018-06-21T05:39:40.392Z,14.27
2018-06-21T05:42:11.711Z,11.23
2018-06-21T05:44:42.629Z,16.60
2018-06-21T05:47:13.408Z,14.87
2018-06-21T05:49:44.051Z,17.23
2018-06-21T05:52:15.042Z,16.57
2018-06-21T05:54:49.042Z,14.20
2018-06-21T05:57:19.482Z,16.67
2018-06-21T05:59:51.503Z,23.03
2018-06-21T06:02:22.430Z,16.53
2018-06-21T06:04:53.386Z,15.33
2018-06-21T06:07:24.876Z,16.90
2018-06-21T06:09:56.055Z,15.23
2018-06-21T06:12:26.638Z,17.63
2018-06-21T06:14:58.007Z,20.23
2018-06-21T06:17:29.229Z,15.57
2018-06-21T06:20:01.842Z,14.53
2018-06-21T06:22:32.650Z,12.17
2018-06-21T06:25:04.234Z,11.40
2018-06-21T06:27:36.612Z,12.17
2018-06-21T06:30:09.005Z,13.73
2018-06-21T06:32:40.776Z,13.33
2018-06-21T06:35:12.715Z,17.67
2018-06-21T06:37:43.375Z,14.10
2018-06-21T06:40:14.106Z,11.40
2018-06-21T06:42:46.269Z,18.97
2018-06-21T06:45:17.827Z,12.27
2018-06-21T06:47:49.596Z,14.40
2018-06-21T06:50:20.536Z,13.43
2018-06-21T06:52:51.169Z,11.17
2018-06-21T06:55:22.081Z,15.80
2018-06-21T06:57:52.870Z,13.93
2018-06-21T07:00:23.849Z,12.10
2018-06-21T07:02:55.123Z,12.43
2018-06-21T07:05:26.298Z,15.73
2018-06-21T07:07:56.995Z,16.13
2018-06-21T07:10:27.992Z,15.30
2018-06-21T07:12:59.542Z,10.83
2018-06-21T07:15:30.974Z,10.30
2018-06-21T07:18:03.104Z,12.63
2018-06-21T07:20:34.492Z,11.50
2018-06-21T07:23:05.505Z,14.80
2018-06-21T07:25:37.118Z,26.87
2018-06-21T07:28:09.392Z,12.77
2018-06-21T07:30:46.193Z,21.93
2018-06-21T07:33:18.874Z,15.70
2018-06-21T07:35:51.201Z,24.57
2018-06-21T07:38:21.999Z,15.73
2018-06-21T07:40:54.197Z,13.43
2018-06-21T07:43:25.755Z,13.87
2018-06-21T07:45:57.008Z,18.90
2018-06-21T07:48:28.682Z,16.67
2018-06-21T07:51:01.230Z,13.27
2018-06-21T07:53:32.242Z,14.83
2018-06-21T07:56:04.403Z,13.97
2018-06-21T07:58:35.096Z,15.63
2018-06-21T08:01:06.269Z,14.00
2018-06-21T08:03:37.208Z,13.23
2018-06-21T08:06:08.081Z,11.07
2018-06-21T08:08:39.985Z,9.10
2018-06-21T08:11:10.962Z,16.23
2018-06-21T08:13:42.293Z,12.57
2018-06-21T08:16:13.499Z,12.40
2018-06-21T08:18:45.502Z,12.30
2018-06-21T08:21:17.453Z,10.60
2018-06-21T08:23:48.599Z,14.17
2018-06-21T08:26:19.603Z,10.17
2018-06-21T08:28:50.421Z,10.77
2018-06-21T08:31:21.534Z,15.13
2018-06-21T08:33:52.994Z,13.67
2018-06-21T08:36:23.856Z,12.43
2018-06-21T08:38:54.581Z,13.53
2018-06-21T08:41:26.782Z,9.47
2018-06-21T08:43:59.316Z,11.37
2018-06-21T08:46:33.829Z,13.23
2018-06-21T08:49:06.106Z,10.00
2018-06-21T08:51:38.293Z,10.03
2018-06-21T08:54:10.078Z,9.20
2018-06-21T08:56:41.290Z,8.67
2018-06-21T08:59:12.319Z,12.80
2018-06-21T09:01:43.297Z,15.53
2018-06-21T09:04:14.271Z,11.03
2018-06-21T09:06:45.242Z,9.47
2018-06-21T09:09:16.424Z,9.80
2018-06-21T09:11:47.884Z,9.40
2018-06-21T09:14:20.765Z,7.40
2018-06-21T09:16:52.689Z,10.07
2018-06-21T09:19:24.752Z,10.20
2018-06-21T09:21:56.010Z,9.53
2018-06-21T09:24:27.465Z,10.30
2018-06-21T09:26:59.616Z,8.47
2018-06-21T09:29:30.363Z,6.83
2018-06-21T09:32:02.323Z,9.07
2018-06-21T09:34:33.783Z,8.13
2018-06-21T09:37:05.101Z,7.07
2018-06-21T09:39:43.150Z,10.23
2018-06-21T09:42:19.940Z,8.07
2018-06-21T09:44:56.355Z,8.20
2018-06-21T09:47:32.718Z,8.97
2018-06-21T09:50:04.915Z,14.80
2018-06-21T09:52:36.134Z,7.77
2018-06-21T09:55:07.743Z,6.30
2018-06-21T09:57:39.186Z,8.63
2018-06-21T10:00:12.784Z,7.90
2018-06-21T10:02:43.593Z,8.80
2018-06-21T10:05:15.091Z,8.20
2018-06-21T10:07:46.759Z,8.37
2018-06-21T10:10:25.278Z,8.60
2018-06-21T10:12:56.792Z,9.53
2018-06-21T10:15:29.737Z,8.67
2018-06-21T10:18:06.508Z,8.57
2018-06-21T10:20:38.550Z,6.80
2018-06-21T10:23:09.902Z,10.23
2018-06-21T10:25:40.822Z,7.70
2018-06-21T10:28:12.721Z,6.33
2018-06-21T10:30:43.826Z,4.93
2018-06-21T10:33:15.053Z,8.57
2018-06-21T10:35:46.205Z,7.17
2018-06-21T10:38:17.452Z,6.77
2018-06-21T10:40:56.926Z,6.60
2018-06-21T10:43:28.573Z,6.77
2018-06-21T10:46:01.432Z,7.40
2018-06-21T10:48:36.238Z,10.10
2018-06-21T10:51:07.672Z,9.33
2018-06-21T10:53:40.305Z,9.40
2018-06-21T10:56:11.654Z,9.83
2018-06-21T10:58:43.774Z,7.40
2018-06-21T11:01:16.932Z,7.07
2018-06-21T11:03:48.458Z,9.03
2018-06-21T11:06:20.113Z,9.23
2018-06-21T11:08:51.405Z,9.50
2018-06-21T11:11:24.174Z,9.13
2018-06-21T11:13:54.576Z,7.00
2018-06-21T11:16:26.584Z,5.80
2018-06-21T11:18:58.883Z,10.27
2018-06-21T11:21:30.127Z,8.23
2018-06-21T11:24:04.453Z,9.90
2018-06-21T11:26:37.432Z,8.20
2018-06-21T11:29:08.701Z,9.60
2018-06-21T11:31:40.029Z,8.60
2018-06-21T11:34:11.745Z,10.67
2018-06-21T11:36:44.017Z,11.73
2018-06-21T11:39:15.227Z,7.70
2018-06-21T11:41:49.838Z,5.50
2018-06-21T11:44:21.427Z,9.40
2018-06-21T11:46:54.166Z,6.47
2018-06-21T11:49:26.050Z,7.10
2018-06-21T11:51:58.216Z,6.93
2018-06-21T11:54:30.773Z,6.17
2018-06-21T11:57:03.050Z,6.73
2018-06-21T11:59:34.145Z,5.97
2018-06-21T12:02:05.414Z,11.10
2018-06-21T12:04:36.875Z,12.83
2018-06-21T12:07:07.984Z,8.53
2018-06-21T12:09:38.652Z,12.00
2018-06-21T12:12:09.294Z,10.37
2018-06-21T12:14:41.877Z,9.87
2018-06-21T12:17:13.001Z,10.33
2018-06-21T12:19:45.208Z,6.73
2018-06-21T12:22:18.065Z,8.97
2018-06-21T12:24:49.441Z,10.70
2018-06-21T12:27:20.153Z,8.17
2018-06-21T12:29:53.181Z,8.50
2018-06-21T12:32:24.215Z,9.53
2018-06-21T12:34:57.019Z,12.27
2018-06-21T12:37:32.120Z,9.83
2018-06-21T12:40:06.598Z,6.43
2018-06-21T12:42:37.968Z,7.13
2018-06-21T12:45:09.987Z,6.40
2018-06-21T12:47:42.863Z,8.73
2018-06-21T12:50:14.371Z,9.53
2018-06-21T12:52:46.993Z,7.43
2018-06-21T12:55:18.080Z,7.47
2018-06-21T12:57:53.040Z,7.70
2018-06-21T13:00:25.283Z,11.50
2018-06-21T13:02:57.768Z,8.50
2018-06-21T13:05:28.655Z,7.17
2018-06-21T13:08:02.740Z,6.33
2018-06-21T13:10:44.602Z,10.07
2018-06-21T13:13:18.616Z,8.90
2018-06-21T13:15:49.779Z,8.63
2018-06-21T13:18:21.421Z,6.93
2018-06-21T13:20:52.567Z,7.00
2018-06-21T13:23:23.793Z,7.17
2018-06-21T13:25:56.272Z,8.07
2018-06-21T13:28:27.851Z,7.17
2018-06-21T13:31:01.009Z,9.27
2018-06-21T13:33:32.083Z,8.37
2018-06-21T13:36:04.348Z,7.43
2018-06-21T13:38:35.645Z,6.97
2018-06-21T13:41:06.999Z,8.77
2018-06-21T13:43:37.968Z,7.23
2018-06-21T13:46:09.514Z,8.30
2018-06-21T13:48:41.329Z,7.53
2018-06-21T13:51:12.648Z,7.73
2018-06-21T13:53:44.468Z,9.37
2018-06-21T13:56:16.588Z,9.40
2018-06-21T13:58:50.600Z,10.23
2018-06-21T14:01:21.899Z,8.60
2018-06-21T14:03:54.379Z,11.00
2018-06-21T14:06:25.797Z,9.50
2018-06-21T14:08:57.958Z,12.63
2018-06-21T14:11:29.887Z,8.10
2018-06-21T14:14:02.709Z,8.80
2018-06-21T14:16:35.429Z,12.23
2018-06-21T14:19:08.824Z,10.30
2018-06-21T14:21:40.296Z,7.60
2018-06-21T14:24:15.212Z,7.87
2018-06-21T14:26:46.694Z,6.40
2018-06-21T14:29:17.157Z,10.43
2018-06-21T14:31:48.086Z,7.33
2018-06-21T14:34:19.672Z,10.40
2018-06-21T14:36:50.921Z,10.77
2018-06-21T14:39:21.882Z,9.97
2018-06-21T14:41:52.637Z,7.87
2018-06-21T14:44:25.445Z,9.23
2018-06-21T14:46:57.320Z,7.23
2018-06-21T14:49:28.347Z,6.17
2018-06-21T14:52:00.124Z,7.83
2018-06-21T14:54:32.031Z,7.33
2018-06-21T14:57:04.432Z,10.37
2018-06-21T14:59:35.725Z,7.57
2018-06-21T15:02:08.156Z,6.70
2018-06-21T15:04:39.823Z,8.80
2018-06-21T15:07:11.018Z,8.73
2018-06-21T15:09:42.815Z,9.00
2018-06-21T15:12:15.221Z,7.33
2018-06-21T15:14:47.700Z,8.00
2018-06-21T15:17:19.071Z,10.70
2018-06-21T15:19:50.593Z,7.63
2018-06-21T15:22:22.534Z,8.03
2018-06-21T15:24:54.319Z,7.27
2018-06-21T15:27:25.265Z,8.67
2018-06-21T15:29:56.472Z,7.40
2018-06-21T15:32:27.701Z,6.13
2018-06-21T15:35:00.296Z,5.40
2018-06-21T15:37:31.455Z,7.53
2018-06-21T15:40:02.851Z,6.60
2018-06-21T15:42:34.864Z,6.07
2018-06-21T15:45:07.404Z,8.53
2018-06-21T15:47:39.258Z,6.43
2018-06-21T15:50:10.221Z,7.47
2018-06-21T15:52:41.853Z,7.20
2018-06-21T15:55:13.046Z,9.20
2018-06-21T15:57:45.013Z,6.80
2018-06-21T16:00:16.565Z,6.87
2018-06-21T16:02:49.201Z,6.93
2018-06-21T16:05:21.697Z,7.43
2018-06-21T16:07:53.469Z,9.97
2018-06-21T16:10:24.501Z,6.23
2018-06-21T16:12:55.604Z,11.47
2018-06-21T16:15:27.241Z,13.83
2018-06-21T16:17:58.400Z,10.27
2018-06-21T16:20:30.958Z,7.77
2018-06-21T16:23:04.033Z,6.97
2018-06-21T16:25:35.160Z,6.73
2018-06-21T16:28:06.742Z,7.83
2018-06-21T16:30:39.728Z,6.50
2018-06-21T16:33:12.135Z,7.43
2018-06-21T16:35:44.066Z,6.17
2018-06-21T16:38:16.110Z,7.77
2018-06-21T16:40:47.241Z,8.60
2018-06-21T16:43:19.512Z,7.93
2018-06-21T16:45:52.536Z,6.07
2018-06-21T16:48:24.669Z,8.43
2018-06-21T16:50:55.916Z,7.57
2018-06-21T16:53:27.117Z,10.33
2018-06-21T16:55:58.400Z,9.00
2018-06-21T16:58:30.857Z,9.40
2018-06-21T17:01:02.954Z,7.67
2018-06-21T17:03:34.084Z,9.00
2018-06-21T17:06:05.737Z,9.10
2018-06-21T17:08:38.247Z,9.27
2018-06-21T17:11:08.972Z,9.17
2018-06-21T17:13:40.180Z,11.07
2018-06-21T17:16:11.133Z,13.40
2018-06-21T17:18:42.722Z,13.83
2018-06-21T17:21:14.205Z,8.90
2018-06-21T17:23:46.997Z,11.90
2018-06-21T17:26:18.663Z,10.80
2018-06-21T17:28:50.454Z,10.70
2018-06-21T17:31:21.599Z,9.40
2018-06-21T17:33:53.446Z,11.13
2018-06-21T17:36:24.584Z,12.23
2018-06-21T17:38:56.899Z,13.43
2018-06-21T17:41:28.109Z,11.67
2018-06-21T17:44:00.917Z,12.33
2018-06-21T17:46:32.816Z,12.47
2018-06-21T17:49:06.328Z,11.57
2018-06-21T17:51:39.089Z,18.13
2018-06-21T17:54:17.621Z,15.63
2018-06-21T17:56:49.182Z,14.40
2018-06-21T17:59:20.718Z,10.87
2018-06-21T18:01:52.661Z,15.27
2018-06-21T18:04:24.175Z,15.63
2018-06-21T18:06:55.876Z,16.90
2018-06-21T18:09:28.862Z,14.73
2018-06-21T18:11:59.522Z,14.30
2018-06-21T18:14:32.390Z,10.63
2018-06-21T18:17:05.901Z,14.90
2018-06-21T18:19:36.739Z,19.83
2018-06-21T18:22:09.587Z,15.63
2018-06-21T18:24:41.139Z,18.93
2018-06-21T18:27:13.131Z,15.33
2018-06-21T18:29:44.925Z,17.90
2018-06-21T18:32:16.026Z,13.47
2018-06-21T18:34:48.049Z,19.20
2018-06-21T18:37:19.226Z,16.33
2018-06-21T18:39:50.287Z,13.63
2018-06-21T18:42:21.841Z,17.47
2018-06-21T18:44:56.606Z,19.40
2018-06-21T18:47:28.003Z,27.67
2018-06-21T18:50:00.130Z,24.27
2018-06-21T18:52:34.456Z,26.23
2018-06-21T18:55:07.860Z,23.37
2018-06-21T18:57:38.691Z,24.10
2018-06-21T19:00:11.111Z,19.13
2018-06-21T19:02:42.459Z,20.03
2018-06-21T19:05:13.469Z,19.20
2018-06-21T19:07:45.661Z,20.80
2018-06-21T19:10:21.954Z,17.23
2018-06-21T19:12:54.708Z,15.10
2018-06-21T19:15:26.267Z,16.53
2018-06-21T19:17:56.978Z,20.30
2018-06-21T19:20:28.020Z,23.70
2018-06-21T19:22:59.771Z,21.43
2018-06-21T19:25:35.075Z,17.40
2018-06-21T19:28:06.365Z,18.83
2018-06-21T19:30:37.053Z,20.37
2018-06-21T19:33:08.262Z,17.07
2018-06-21T19:35:40.314Z,21.43
2018-06-21T19:38:11.439Z,22.50
2018-06-21T19:40:44.752Z,17.83
2018-06-21T19:43:23.714Z,17.63
2018-06-21T19:45:57.033Z,17.50
2018-06-21T19:48:43.338Z,17.43
2018-06-21T19:51:25.186Z,18.07
2018-06-21T19:54:03.580Z,17.00
2018-06-21T19:56:37.537Z,18.70
2018-06-21T19:59:13.086Z,16.90
2018-06-21T20:01:48.015Z,15.73
2018-06-21T20:04:20.294Z,23.20
2018-06-21T20:06:51.669Z,18.80
2018-06-21T20:09:22.859Z,17.33
2018-06-21T20:11:55.590Z,17.27
2018-06-21T20:14:27.610Z,20.10
2018-06-21T20:17:01.377Z,17.83
2018-06-21T20:20:36.361Z,13.83
2018-06-21T20:23:09.146Z,16.87
2018-06-21T20:25:40.886Z,16.73
2018-06-21T20:28:15.088Z,18.30
2018-06-21T20:30:52.283Z,14.93
2018-06-21T20:33:26.020Z,16.50
2018-06-21T20:36:00.171Z,14.13
2018-06-21T20:38:32.047Z,18.40
2018-06-21T20:41:04.135Z,13.40
2018-06-21T20:43:36.457Z,18.47
2018-06-21T20:46:11.936Z,16.43
2018-06-21T20:48:43.907Z,16.97
2018-06-21T20:51:17.881Z,13.83
2018-06-21T20:53:49.134Z,18.37
2018-06-21T20:56:22.185Z,18.53
2018-06-21T20:58:54.598Z,14.70
2018-06-21T21:01:28.003Z,15.20
2018-06-21T21:04:00.264Z,12.93
2018-06-21T21:06:33.229Z,17.93
2018-06-21T21:09:08.655Z,12.77
2018-06-21T21:11:42.936Z,15.67
2018-06-21T21:14:14.670Z,16.33
2018-06-21T21:16:51.622Z,14.37
2018-06-21T21:19:24.844Z,17.47
2018-06-21T21:22:00.222Z,14.40
2018-06-21T21:24:33.197Z,14.43
2018-06-21T21:27:07.114Z,15.37
2018-06-21T21:29:39.856Z,15.07
2018-06-21T21:32:14.876Z,15.30
2018-06-21T21:34:50.258Z,15.00
2018-06-21T21:37:26.254Z,15.33
2018-06-21T21:40:03.982Z,11.20
2018-06-21T21:42:38.694Z,12.30
2018-06-21T21:45:12.516Z,13.43
2018-06-21T21:47:49.218Z,14.13
2018-06-21T21:50:23.867Z,12.37
2018-06-21T21:52:57.857Z,12.37
2018-06-21T21:55:31.167Z,12.33
2018-06-21T21:58:08.440Z,12.57
2018-06-21T22:00:51.658Z,13.57
2018-06-21T22:03:24.457Z,11.20
2018-06-21T22:05:57.470Z,9.83
2018-06-21T22:08:35.698Z,13.20
2018-06-21T22:11:12.533Z,12.90
2018-06-21T22:13:47.964Z,14.00
2018-06-21T22:16:25.384Z,12.37
2018-06-21T22:19:00.294Z,11.00
2018-06-21T22:21:35.648Z,10.50
2018-06-21T22:24:09.591Z,10.10
2018-06-21T22:26:43.395Z,10.33
2018-06-21T22:29:16.234Z,9.73
2018-06-21T22:31:50.862Z,10.90
2018-06-21T22:34:28.153Z,9.57
2018-06-21T22:37:01.227Z,9.20
2018-06-21T22:39:37.958Z,10.10
2018-06-21T22:42:13.099Z,12.80
2018-06-21T22:44:48.239Z,10.57
2018-06-21T22:47:26.332Z,10.63
2018-06-21T22:50:01.270Z,9.03
2018-06-21T22:52:37.686Z,9.07
2018-06-21T22:55:13.708Z,14.53
2018-06-21T22:57:47.755Z,9.50
2018-06-21T23:00:23.154Z,9.43
2018-06-21T23:02:58.542Z,12.97
2018-06-21T23:05:34.261Z,9.53
2018-06-21T23:08:09.798Z,11.70
2018-06-21T23:10:46.016Z,8.80
2018-06-21T23:13:24.904Z,12.13
2018-06-21T23:16:03.384Z,9.60
2018-06-21T23:18:54.495Z,8.37
2018-06-21T23:21:29.388Z,10.63
2018-06-21T23:24:04.414Z,9.97
2018-06-21T23:26:38.715Z,11.63
2018-06-21T23:29:18.280Z,8.73
2018-06-21T23:31:52.596Z,9.17
2018-06-21T23:34:29.738Z,10.37
2018-06-21T23:37:05.366Z,13.47
2018-06-21T23:39:40.198Z,8.67
2018-06-21T23:42:15.262Z,8.93
2018-06-21T23:44:59.463Z,8.60
2018-06-21T23:47:37.741Z,12.00
2018-06-21T23:50:15.010Z,9.23
2018-06-21T23:52:49.515Z,8.83
2018-06-21T23:55:22.366Z,9.30
2018-06-21T23:57:57.172Z,10.83
